Time;durP1;ratioP1;P1;durP2;ratioP2;P2;SDS_P1;SDS_P2;PMS_P1;PMS_P2;Temp;Humidity;BMP_temperature;BMP_pressure;BME280_temperature;BME280_humidity;BME280_pressure;Samples;Min_cycle;Max_cycle;Signal;HPM_P1;HPM_P2
2022/10/19 00:02:17;;;;;;;50.73;18.50;;;;;;;-145.69;100.00;52480.03;5055044;28;20195;-86
2022/10/19 00:04:48;;;;;;;57.53;20.53;;;;;;;-145.69;100.00;52474.09;5055595;28;20227;-84
2022/10/19 00:07:14;;;;;;;47.40;17.60;;;;;;;-145.69;100.00;52456.28;5055649;28;20195;-85
2022/10/19 00:09:43;;;;;;;45.97;17.53;;;;;;;-145.69;100.00;52489.94;5055318;28;20584;-83
2022/10/19 00:12:11;;;;;;;44.10;17.17;;;;;;;-145.69;100.00;52462.22;5055700;28;20893;-86
2022/10/19 00:14:39;;;;;;;39.03;16.60;;;;;;;-145.69;100.00;52501.81;5055969;28;20230;-86
2022/10/19 00:17:06;;;;;;;50.63;16.90;;;;;;;-145.69;100.00;52464.19;5056067;28;20199;-86
2022/10/19 00:19:32;;;;;;;39.70;16.40;;;;;;;-145.69;100.00;52468.16;5055500;28;20236;-86
2022/10/19 00:22:00;;;;;;;41.60;17.00;;;;;;;-145.69;100.00;52446.38;5055686;28;20227;-86
2022/10/19 00:24:26;;;;;;;36.40;15.03;;;;;;;-145.69;100.00;52491.91;5055571;28;20223;-86
2022/10/19 00:26:53;;;;;;;47.70;16.47;;;;;;;-145.69;100.00;52501.81;5055374;28;20636;-86
2022/10/19 00:29:22;;;;;;;33.72;15.13;;;;;;;-145.69;100.00;52535.47;5041713;28;20283;-85
2022/10/19 00:31:51;;;;;;;32.37;15.33;;;;;;;-145.69;100.00;52458.25;5035983;28;20192;-86
2022/10/19 00:34:18;;;;;;;40.73;14.03;;;;;;;-145.69;100.00;52485.97;5035646;28;20207;-86
2022/10/19 00:36:44;;;;;;;25.77;13.13;;;;;;;-145.69;100.00;52478.06;5035315;28;20204;-87
2022/10/19 00:39:15;;;;;;;29.50;13.30;;;;;;;-145.69;100.00;52499.84;5035572;28;20646;-86
2022/10/19 00:41:43;;;;;;;27.77;11.77;;;;;;;-145.69;100.00;52470.13;5035196;28;20200;-86
2022/10/19 00:44:46;;;;;;;30.77;11.47;;;;;;;-145.69;100.00;52509.75;5035154;28;20266;-86
2022/10/19 00:47:15;;;;;;;22.10;9.97;;;;;;;-145.69;100.00;52485.97;4992496;28;20200;-86
2022/10/19 00:49:45;;;;;;;17.60;9.30;;;;;;;-145.69;100.00;52493.91;5034502;28;20247;-86
2022/10/19 00:52:17;;;;;;;18.27;9.33;;;;;;;-145.69;100.00;52517.66;5035282;28;20253;-86
2022/10/19 00:54:47;;;;;;;20.20;9.13;;;;;;;-145.69;100.00;52472.13;5035141;28;20291;-87
2022/10/19 00:57:14;;;;;;;21.07;9.03;;;;;;;-145.69;100.00;52474.09;5035158;28;20556;-86
2022/10/19 00:59:42;;;;;;;19.97;9.27;;;;;;;-145.69;100.00;52484.00;5035115;28;20291;-86
2022/10/19 01:02:14;;;;;;;28.17;12.20;;;;;;;-145.69;100.00;52507.75;5035819;28;20635;-86
2022/10/19 01:04:44;;;;;;;31.57;13.07;;;;;;;-145.69;100.00;52519.63;5054202;28;20322;-86
2022/10/19 01:07:12;;;;;;;31.47;12.47;;;;;;;-145.69;100.00;52480.03;5054702;28;20207;-86
2022/10/19 01:09:40;;;;;;;33.83;13.20;;;;;;;-145.69;100.00;52484.00;5054716;28;20214;-86
2022/10/19 01:12:18;;;;;;;34.87;13.43;;;;;;;-145.69;100.00;52466.16;5054494;28;20192;-87
2022/10/19 01:15:03;;;;;;;35.93;13.87;;;;;;;-145.69;100.00;52499.84;5054876;28;20682;-86
2022/10/19 01:17:43;;;;;;;30.73;11.77;;;;;;;-145.69;100.00;52489.94;5054785;28;20199;-86
2022/10/19 01:20:34;;;;;;;31.43;12.50;;;;;;;-145.69;100.00;52521.63;5054686;28;20282;-86
2022/10/19 01:23:24;;;;;;;27.70;10.80;;;;;;;-145.69;100.00;52531.53;5054721;28;20203;-86
2022/10/19 01:26:00;;;;;;;33.40;13.17;;;;;;;-145.69;100.00;52537.47;5010417;28;20230;-85
2022/10/19 01:28:38;;;;;;;44.57;15.93;;;;;;;-145.69;100.00;52515.69;5054505;28;20201;-86
2022/10/19 01:31:23;;;;;;;46.97;16.30;;;;;;;-145.69;100.00;52472.13;5053461;28;20199;-85
2022/10/19 01:33:58;;;;;;;46.20;16.03;;;;;;;-145.69;100.00;52464.19;5053947;28;20207;-85
2022/10/19 01:36:33;;;;;;;43.67;15.03;;;;;;;-145.69;100.00;52487.97;5054523;28;20260;-86
2022/10/19 01:39:07;;;;;;;50.43;16.83;;;;;;;-145.69;100.00;52485.97;5054070;28;20210;-86
2022/10/19 01:41:47;;;;;;;44.83;15.53;;;;;;;-145.69;100.00;52495.88;5054132;28;20199;-86
2022/10/19 01:44:18;;;;;;;46.00;16.27;;;;;;;-145.69;100.00;52476.06;5054316;28;20229;-86
2022/10/19 01:46:54;;;;;;;61.80;17.97;;;;;;;-145.69;100.00;52484.00;5054626;28;20203;-87
2022/10/19 01:49:28;;;;;;;52.23;17.13;;;;;;;-145.69;100.00;52476.06;5054128;28;20203;-86
2022/10/19 01:51:59;;;;;;;51.27;16.07;;;;;;;-145.69;100.00;52527.56;5053698;28;20203;-86
2022/10/19 01:54:29;;;;;;;67.10;17.53;;;;;;;-145.69;100.00;52499.84;5053786;28;20199;-86
2022/10/19 01:56:59;;;;;;;71.43;18.47;;;;;;;-145.69;100.00;52491.91;5035756;28;20809;-86
2022/10/19 01:59:27;;;;;;;88.50;20.63;;;;;;;-145.69;100.00;52503.81;5033972;28;20663;-85
2022/10/19 02:01:58;;;;;;;86.47;18.80;;;;;;;-145.69;100.00;52487.97;5036787;28;20200;-85
2022/10/19 02:04:28;;;;;;;97.43;20.07;;;;;;;-145.69;100.00;52482.00;5038003;28;20228;-85
2022/10/19 02:06:55;;;;;;;121.93;23.55;;;;;;;-145.69;100.00;52507.75;5038921;28;20529;-85
2022/10/19 02:09:22;;;;;;;115.63;21.17;;;;;;;-145.69;100.00;52523.59;5044446;28;20674;-85
2022/10/19 02:11:55;;;;;;;96.80;19.60;;;;;;;-145.69;100.00;52489.94;5058245;28;20199;-85
2022/10/19 02:14:27;;;;;;;97.50;20.57;;;;;;;-145.69;100.00;52468.16;5057702;28;20210;-85
2022/10/19 02:17:02;;;;;;;93.03;19.83;;;;;;;-145.69;100.00;52460.22;5057674;28;20195;-85
2022/10/19 02:19:28;;;;;;;97.85;22.70;;;;;;;-145.69;100.00;52470.13;5056063;28;20869;-86
2022/10/19 02:21:58;;;;;;;90.88;18.73;;;;;;;-145.69;100.00;52487.97;5057991;28;20200;-87
2022/10/19 02:24:27;;;;;;;92.03;19.17;;;;;;;-145.69;100.00;52495.88;5057755;28;20669;-86
2022/10/19 02:26:55;;;;;;;103.53;20.33;;;;;;;-145.69;100.00;52484.00;5040424;28;20203;-86
2022/10/19 02:29:22;;;;;;;101.03;19.17;;;;;;;-145.69;100.00;52487.97;5048729;28;20207;-86
2022/10/19 02:31:49;;;;;;;104.60;21.07;;;;;;;-145.69;100.00;52454.28;5057516;28;20787;-85
2022/10/19 02:34:17;;;;;;;91.10;19.57;;;;;;;-145.69;100.00;52480.03;5057395;28;20200;-86
2022/10/19 02:36:45;;;;;;;89.63;17.90;;;;;;;-145.69;100.00;52482.00;5057537;28;20279;-86
2022/10/19 02:39:12;;;;;;;92.23;17.07;;;;;;;-145.69;100.00;52485.97;5057537;28;20209;-86
2022/10/19 02:41:44;;;;;;;101.70;18.20;;;;;;;-145.69;100.00;52497.84;5056989;28;20210;-85
2022/10/19 02:44:20;;;;;;;97.33;18.40;;;;;;;-145.69;100.00;52499.84;5057241;28;20627;-85
2022/10/19 02:46:51;;;;;;;98.73;18.47;;;;;;;-145.69;100.00;52489.94;5057240;28;20207;-85
2022/10/19 02:49:22;;;;;;;97.43;19.07;;;;;;;-145.69;100.00;52484.00;5057307;28;20206;-86
2022/10/19 02:51:59;;;;;;;106.97;19.50;;;;;;;-145.69;100.00;52495.88;5056998;28;20670;-86
2022/10/19 02:54:25;;;;;;;109.80;20.70;;;;;;;-145.69;100.00;52495.88;5056976;28;20210;-85
2022/10/19 02:56:52;;;;;;;99.13;18.20;;;;;;;-145.69;100.00;52478.06;5056368;28;20205;-85
2022/10/19 02:59:19;;;;;;;92.70;18.93;;;;;;;-145.69;100.00;52531.53;5057128;28;20697;-86
2022/10/19 03:01:45;;;;;;;111.83;20.90;;;;;;;-145.69;100.00;52491.91;5056812;28;20254;-86
2022/10/19 03:04:12;;;;;;;113.93;22.77;;;;;;;-145.69;100.00;52487.97;5056825;28;20202;-86
2022/10/19 03:06:40;;;;;;;104.13;20.47;;;;;;;-145.69;100.00;52464.19;5056435;28;20235;-85
2022/10/19 03:09:06;;;;;;;111.97;20.70;;;;;;;-145.69;100.00;52491.91;5056836;28;20214;-86
2022/10/19 03:11:39;;;;;;;81.30;18.30;;;;;;;-145.69;100.00;52485.97;5056734;28;20206;-86
2022/10/19 03:14:05;;;;;;;86.27;18.60;;;;;;;-145.69;100.00;52493.91;5056874;28;20685;-86
2022/10/19 03:16:34;;;;;;;101.17;19.13;;;;;;;-145.69;100.00;52497.84;5056834;28;20195;-86
2022/10/19 03:19:03;;;;;;;101.03;18.95;;;;;;;-145.69;100.00;52464.19;5056671;28;20322;-85
2022/10/19 03:21:29;;;;;;;94.65;19.90;;;;;;;-145.69;100.00;52493.91;5057174;28;20206;-87
2022/10/19 03:24:00;;;;;;;83.72;18.55;;;;;;;-145.69;100.00;52452.31;5056562;28;20238;-86
2022/10/19 03:26:29;;;;;;;64.57;15.45;;;;;;;-145.69;100.00;52474.09;5055902;28;20284;-86
2022/10/19 03:28:56;;;;;;;87.50;17.95;;;;;;;-145.69;100.00;52485.97;5056731;28;20195;-86
2022/10/19 03:31:22;;;;;;;74.93;16.87;;;;;;;-145.69;100.00;52485.97;5056692;28;20203;-87
2022/10/19 03:33:49;;;;;;;65.40;16.27;;;;;;;-145.69;100.00;52495.88;5056733;28;20199;-87
2022/10/19 03:36:22;;;;;;;82.60;18.33;;;;;;;-145.69;100.00;52438.44;5056474;28;20199;-86
2022/10/19 03:38:53;;;;;;;82.32;16.95;;;;;;;-145.69;100.00;52505.78;5056674;28;20202;-87
2022/10/19 03:41:22;;;;;;;87.85;19.02;;;;;;;-145.69;100.00;52521.63;5056973;28;20191;-87
2022/10/19 03:43:49;;;;;;;94.70;20.23;;;;;;;-145.69;100.00;52519.63;5056679;28;20289;-87
2022/10/19 03:46:16;;;;;;;102.88;20.58;;;;;;;-145.69;100.00;52497.84;5056494;28;20227;-87
2022/10/19 03:48:43;;;;;;;106.05;20.85;;;;;;;-145.69;100.00;52460.22;5056255;28;20195;-87
2022/10/19 03:51:12;;;;;;;97.90;18.93;;;;;;;-145.69;100.00;52505.78;5056442;28;20206;-87
2022/10/19 03:53:40;;;;;;;101.25;20.90;;;;;;;-145.69;100.00;52482.00;5056187;28;20208;-86
2022/10/19 03:56:10;;;;;;;101.78;20.35;;;;;;;-145.69;100.00;52470.13;5055885;28;20206;-86
2022/10/19 03:58:40;;;;;;;107.57;19.85;;;;;;;-145.69;100.00;52503.81;5055904;28;20206;-87
2022/10/19 04:01:08;;;;;;;87.78;19.75;;;;;;;-145.69;100.00;52487.97;5056134;28;20205;-87
2022/10/19 04:03:35;;;;;;;104.93;21.65;;;;;;;-145.69;100.00;52480.03;5055757;28;20200;-86
2022/10/19 04:06:03;;;;;;;81.95;18.65;;;;;;;-145.69;100.00;52487.97;5056065;28;20238;-87
2022/10/19 04:08:30;;;;;;;85.68;19.63;;;;;;;-145.69;100.00;52487.97;5055834;28;20601;-86
2022/10/19 04:11:00;;;;;;;90.13;20.58;;;;;;;-145.69;100.00;52476.06;5055457;28;20253;-87
2022/10/19 04:13:31;;;;;;;85.90;17.90;;;;;;;-145.69;100.00;52472.13;5055628;28;20642;-86
2022/10/19 04:16:06;;;;;;;92.50;20.48;;;;;;;-145.69;100.00;52509.75;5055427;28;20294;-84
2022/10/19 04:18:32;;;;;;;78.13;17.42;;;;;;;-145.69;100.00;52476.06;5055400;28;20235;-86
2022/10/19 04:21:03;;;;;;;93.30;19.50;;;;;;;-145.69;100.00;52489.94;5055702;28;20195;-87
2022/10/19 04:23:35;;;;;;;82.32;19.10;;;;;;;-145.69;100.00;52466.16;5054905;28;20203;-87
2022/10/19 04:26:02;;;;;;;86.63;18.85;;;;;;;-145.69;100.00;52513.69;5039290;28;20228;-87
2022/10/19 04:28:30;;;;;;;69.25;16.30;;;;;;;-145.69;100.00;52491.91;5054990;28;20200;-86
2022/10/19 04:30:56;;;;;;;79.30;17.73;;;;;;;-145.69;100.00;52468.16;5055787;28;20202;-87
2022/10/19 04:33:26;;;;;;;60.10;15.75;;;;;;;-145.69;100.00;52466.16;5055558;28;20203;-87
2022/10/19 04:35:58;;;;;;;68.05;16.77;;;;;;;-145.69;100.00;52509.75;5055485;28;20207;-86
2022/10/19 04:38:24;;;;;;;58.67;15.25;;;;;;;-145.69;100.00;52505.78;5051720;28;20195;-87
2022/10/19 04:40:51;;;;;;;74.72;18.65;;;;;;;-145.69;100.00;52495.88;5035585;28;20211;-87
2022/10/19 04:43:17;;;;;;;66.20;16.90;;;;;;;-145.69;100.00;52489.94;5035752;28;20199;-87
2022/10/19 04:45:44;;;;;;;78.85;19.70;;;;;;;-145.69;100.00;52531.53;5035387;28;20254;-87
2022/10/19 04:48:10;;;;;;;64.18;17.88;;;;;;;-145.69;100.00;52511.72;5035485;28;20583;-86
2022/10/19 04:50:43;;;;;;;70.07;18.67;;;;;;;-145.69;100.00;52495.88;5035154;28;20673;-86
2022/10/19 04:53:12;;;;;;;53.90;15.93;;;;;;;-145.69;100.00;52497.84;5017595;28;20279;-86
2022/10/19 04:55:42;;;;;;;45.15;14.80;;;;;;;-145.69;100.00;52487.97;5051781;28;20202;-86
2022/10/19 04:58:09;;;;;;;71.63;17.63;;;;;;;-145.69;100.00;52460.22;5055217;28;20210;-87
2022/10/19 05:00:38;;;;;;;69.28;19.48;;;;;;;-145.69;100.00;52499.84;5055210;28;20566;-86
2022/10/19 05:03:04;;;;;;;99.45;24.27;;;;;;;-145.69;100.00;52476.06;5039345;28;20200;-87
2022/10/19 05:05:31;;;;;;;100.55;23.35;;;;;;;-145.69;100.00;52460.22;5034108;28;20691;-87
2022/10/19 05:07:59;;;;;;;99.72;23.63;;;;;;;-145.69;100.00;52499.84;5034749;28;20207;-86
2022/10/19 05:10:26;;;;;;;87.43;22.08;;;;;;;-145.69;100.00;52458.25;5034976;28;20287;-86
2022/10/19 05:12:53;;;;;;;63.90;19.05;;;;;;;-145.69;100.00;52499.84;5035050;28;20208;-87
2022/10/19 05:15:24;;;;;;;53.33;16.83;;;;;;;-145.69;100.00;52482.00;5034499;28;20765;-87
2022/10/19 05:17:51;;;;;;;62.13;19.65;;;;;;;-145.69;100.00;52485.97;5034946;28;20258;-87
2022/10/19 05:20:17;;;;;;;79.43;24.47;;;;;;;-145.69;100.00;52495.88;5034301;28;20447;-86
2022/10/19 05:22:44;;;;;;;66.40;20.10;;;;;;;-145.69;100.00;52460.22;5034580;28;20207;-86
2022/10/19 05:25:12;;;;;;;65.18;20.30;;;;;;;-145.69;100.00;52493.91;5047896;28;20199;-87
2022/10/19 05:27:38;;;;;;;46.03;16.13;;;;;;;-145.69;100.00;52478.06;5054143;28;20222;-86
2022/10/19 05:30:07;;;;;;;59.08;16.73;;;;;;;-145.69;100.00;52503.81;5054203;28;20199;-86
2022/10/19 05:32:34;;;;;;;66.15;18.95;;;;;;;-145.69;100.00;52478.06;5054242;28;20195;-86
2022/10/19 05:35:00;;;;;;;47.88;16.63;;;;;;;-145.69;100.00;52501.81;5052991;28;20710;-85
2022/10/19 05:37:27;;;;;;;53.28;17.83;;;;;;;-145.69;100.00;52478.06;5053994;28;20207;-86
2022/10/19 05:39:54;;;;;;;56.03;17.27;;;;;;;-145.69;100.00;52491.91;5054222;28;20207;-85
2022/10/19 05:42:22;;;;;;;59.83;17.23;;;;;;;-145.69;100.00;61773.88;5053546;28;20209;-86
2022/10/19 05:44:55;;;;;;;66.55;18.13;;;;;;;-145.69;100.00;61773.88;5054120;28;20203;-86
2022/10/19 05:47:21;;;;;;;67.45;16.52;;;;;;;-145.69;100.00;52497.84;5053463;28;20732;-85
2022/10/19 05:49:48;;;;;;;67.10;17.60;;;;;;;-145.69;100.00;52440.44;5054124;28;20196;-85
2022/10/19 05:52:16;;;;;;;60.75;17.17;;;;;;;-145.69;100.00;52476.06;5053891;28;20222;-86
2022/10/19 05:54:43;;;;;;;79.00;18.38;;;;;;;-145.69;100.00;52507.75;5042984;28;20291;-86
2022/10/19 05:57:09;;;;;;;80.50;19.45;;;;;;;-145.69;100.00;52499.84;5034013;28;20227;-85
2022/10/19 05:59:38;;;;;;;61.88;17.88;;;;;;;-145.69;100.00;52484.00;5033496;28;20200;-85
2022/10/19 06:02:07;;;;;;;46.85;17.63;;;;;;;-145.69;100.00;52470.13;5033127;28;20291;-85
2022/10/19 06:04:34;;;;;;;45.67;17.45;;;;;;;-145.69;100.00;52476.06;5033397;28;20207;-85
2022/10/19 06:07:00;;;;;;;52.38;17.15;;;;;;;-145.69;100.00;52470.13;5033883;28;20228;-86
2022/10/19 06:09:27;;;;;;;52.38;16.65;;;;;;;-145.69;100.00;52468.16;5034079;28;20243;-85
2022/10/19 06:11:56;;;;;;;57.25;16.55;;;;;;;-145.69;100.00;52509.75;5033801;28;20200;-86
2022/10/19 06:14:22;;;;;;;53.47;19.50;;;;;;;-145.69;100.00;52466.16;5034213;28;20222;-86
2022/10/19 06:16:50;;;;;;;47.35;16.75;;;;;;;-145.69;100.00;52472.13;5032376;28;20208;-85
2022/10/19 06:19:16;;;;;;;43.33;16.45;;;;;;;-145.69;100.00;52482.00;5034402;28;20242;-86
2022/10/19 06:21:47;;;;;;;52.88;17.73;;;;;;;-145.69;100.00;52480.03;5033694;28;20726;-85
2022/10/19 06:24:14;;;;;;;44.38;17.27;;;;;;;-145.69;100.00;52484.00;5033769;28;20207;-85
2022/10/19 06:26:40;;;;;;;43.72;15.57;;;;;;;-145.69;100.00;52474.09;5033724;28;20250;-86
2022/10/19 06:29:07;;;;;;;50.70;16.48;;;;;;;-145.69;100.00;52464.19;5033381;28;20261;-85
2022/10/19 06:31:37;;;;;;;54.45;16.67;;;;;;;-145.69;100.00;52491.91;5033245;28;20196;-85
2022/10/19 06:34:05;;;;;;;48.83;16.42;;;;;;;-145.69;100.00;52480.03;5033849;28;20200;-86
2022/10/19 06:36:32;;;;;;;47.15;16.45;;;;;;;-145.69;100.00;52478.06;5033445;28;20204;-85
2022/10/19 06:39:00;;;;;;;42.15;15.10;;;;;;;-145.69;100.00;52485.97;5033480;28;20202;-86
2022/10/19 06:41:33;;;;;;;34.20;14.35;;;;;;;-145.69;100.00;52472.13;5033526;28;20578;-85
2022/10/19 06:44:02;;;;;;;30.80;14.25;;;;;;;-145.69;100.00;52450.31;5033362;28;20268;-84
2022/10/19 06:46:29;;;;;;;45.10;14.65;;;;;;;-145.69;100.00;52484.00;5033342;28;20234;-85
2022/10/19 06:48:58;;;;;;;36.90;15.10;;;;;;;-145.69;100.00;52476.06;5036160;28;20452;-84
2022/10/19 06:51:27;;;;;;;34.78;14.00;;;;;;;-145.69;100.00;52497.84;5036924;28;20291;-85
2022/10/19 06:53:57;;;;;;;32.58;12.77;;;;;;;-145.69;100.00;52535.47;5036127;28;20204;-84
2022/10/19 06:56:24;;;;;;;26.92;10.18;;;;;;;-145.69;100.00;52468.16;5036515;28;20703;-83
2022/10/19 06:58:51;;;;;;;24.10;9.10;;;;;;;-145.69;100.00;52517.66;5036142;28;20204;-84
2022/10/19 07:01:17;;;;;;;20.45;7.90;;;;;;;-145.69;100.00;52464.19;5039812;28;20187;-83
2022/10/19 07:03:44;;;;;;;18.85;7.97;;;;;;;-145.69;100.00;52474.09;5057009;28;20208;-84
2022/10/19 07:06:12;;;;;;;22.42;8.55;;;;;;;-145.69;100.00;52468.16;5056817;28;20223;-84
2022/10/19 07:08:48;;;;;;;17.92;7.70;;;;;;;-145.69;100.00;52464.19;5056847;28;20199;-83
2022/10/19 07:11:16;;;;;;;17.50;6.97;;;;;;;-145.69;100.00;52493.91;5057071;28;20203;-83
2022/10/19 07:13:43;;;;;;;16.05;6.28;;;;;;;-145.69;100.00;52454.28;5057320;28;20205;-83
2022/10/19 07:16:11;;;;;;;14.52;6.80;;;;;;;-145.69;100.00;52501.81;5056877;28;20290;-84
2022/10/19 07:18:41;;;;;;;14.63;6.57;;;;;;;-145.69;100.00;52527.56;5056045;28;20314;-85
2022/10/19 07:21:11;;;;;;;11.88;5.95;;;;;;;-145.69;100.00;52462.22;5056094;28;20195;-84
2022/10/19 07:23:41;;;;;;;14.90;6.68;;;;;;;-145.69;100.00;52519.63;5056228;28;20654;-84
2022/10/19 07:26:11;;;;;;;17.23;6.75;;;;;;;-145.69;100.00;52487.97;5056031;28;20318;-85
2022/10/19 07:28:38;;;;;;;14.18;7.57;;;;;;;-145.69;100.00;52478.06;5055125;28;20803;-83
2022/10/19 07:31:06;;;;;;;11.00;5.78;;;;;;;-145.69;100.00;52505.78;5055797;28;20211;-84
2022/10/19 07:33:33;;;;;;;12.38;6.32;;;;;;;-145.69;100.00;52460.22;5056041;28;20211;-84
2022/10/19 07:36:00;;;;;;;12.70;6.20;;;;;;;-145.69;100.00;52458.25;5055590;28;20199;-84
2022/10/19 07:38:28;;;;;;;14.07;6.05;;;;;;;-145.69;100.00;52464.19;5055973;28;20204;-84
2022/10/19 07:41:02;;;;;;;12.20;6.43;;;;;;;-145.69;100.00;52480.03;5055837;28;20199;-84
2022/10/19 07:43:29;;;;;;;13.05;6.18;;;;;;;-145.69;100.00;52482.00;5055260;28;20209;-83
2022/10/19 07:45:59;;;;;;;12.32;6.07;;;;;;;-145.69;100.00;52456.28;5055508;28;20237;-83
2022/10/19 07:48:26;;;;;;;13.27;6.13;;;;;;;-145.69;100.00;52452.31;5055059;28;20203;-83
2022/10/19 07:50:55;;;;;;;11.18;5.30;;;;;;;-145.69;100.00;52462.22;5055863;28;20680;-83
2022/10/19 07:53:22;;;;;;;9.52;5.25;;;;;;;-145.69;100.00;52458.25;5055231;28;20191;-83
2022/10/19 07:55:49;;;;;;;11.93;5.97;;;;;;;-145.69;100.00;52454.28;5055311;28;20204;-83
2022/10/19 07:58:16;;;;;;;13.18;6.57;;;;;;;-145.69;100.00;52446.38;5054085;28;20207;-83
2022/10/19 08:00:43;;;;;;;8.50;5.22;;;;;;;-145.69;100.00;52440.44;5054294;28;20226;-81
2022/10/19 08:03:10;;;;;;;9.88;5.43;;;;;;;-145.69;100.00;52450.31;5055321;28;20195;-83
2022/10/19 08:05:36;;;;;;;9.52;5.15;;;;;;;-145.69;100.00;52412.69;5042913;28;20223;-83
2022/10/19 08:08:03;;;;;;;11.77;4.97;;;;;;;-145.69;100.00;52448.34;5035685;28;20227;-84
2022/10/19 08:10:31;;;;;;;13.60;5.82;;;;;;;-145.69;100.00;52456.28;5034950;28;20648;-83
2022/10/19 08:12:57;;;;;;;9.02;5.15;;;;;;;-145.69;100.00;52442.41;5034844;28;20222;-83
2022/10/19 08:15:27;;;;;;;9.45;5.32;;;;;;;-145.69;100.00;52478.06;5035158;28;20673;-83
2022/10/19 08:17:53;;;;;;;7.72;4.82;;;;;;;-145.69;100.00;52456.28;5035453;28;20235;-83
2022/10/19 08:20:20;;;;;;;9.45;4.70;;;;;;;-145.69;100.00;52434.47;5035223;28;20205;-85
2022/10/19 08:22:47;;;;;;;8.25;4.82;;;;;;;-145.69;100.00;52460.22;5034933;28;20203;-84
2022/10/19 08:25:13;;;;;;;9.15;5.28;;;;;;;-145.69;100.00;52430.53;5034950;28;20247;-83
2022/10/19 08:27:40;;;;;;;7.35;4.65;;;;;;;-145.69;100.00;52442.41;5035052;28;20231;-84
2022/10/19 08:30:07;;;;;;;9.15;4.45;;;;;;;-145.69;100.00;52408.75;5034641;28;20659;-84
2022/10/19 08:32:35;;;;;;;6.78;4.13;;;;;;;-145.69;100.00;52430.53;5042380;28;20222;-82
2022/10/19 08:35:01;;;;;;;9.23;4.00;;;;;;;-145.69;100.00;52432.50;5053379;28;20295;-83
2022/10/19 08:37:28;;;;;;;6.65;4.28;;;;;;;-145.69;100.00;52466.16;5055263;28;20210;-82
2022/10/19 08:39:54;;;;;;;6.70;4.10;;;;;;;-145.69;100.00;52406.75;5040521;28;20204;-83
2022/10/19 08:42:28;;;;;;;9.07;5.20;;;;;;;-145.69;100.00;52440.44;5035774;28;20207;-83
2022/10/19 08:45:19;;;;;;;6.40;3.90;;;;;;;-145.69;100.00;52446.38;5035156;28;20208;-86
2022/10/19 08:48:00;;;;;;;7.20;4.20;;;;;;;-145.69;100.00;52408.75;5037250;28;20327;-85
2022/10/19 08:50:31;;;;;;;7.85;4.05;;;;;;;-145.69;100.00;52428.53;5053786;28;20199;-82
2022/10/19 08:53:02;;;;;;;4.38;3.30;;;;;;;-145.69;100.00;52426.56;5056508;28;20207;-83
2022/10/19 08:55:41;;;;;;;14.48;4.30;;;;;;;-145.69;100.00;52450.31;5054527;28;20721;-83
2022/10/19 08:58:24;;;;;;;7.35;4.50;;;;;;;-145.69;100.00;52412.69;5058333;28;20203;-82
2022/10/19 09:00:57;;;;;;;6.40;3.80;;;;;;;-145.69;100.00;52408.75;5055908;28;20547;-81
2022/10/19 09:03:33;;;;;;;6.80;3.97;;;;;;;-145.69;100.00;52400.81;5053958;28;20206;-82
2022/10/19 09:06:07;;;;;;;5.43;3.90;;;;;;;-145.69;100.00;52406.75;5053824;28;20211;-82
2022/10/19 09:08:38;;;;;;;7.07;3.72;;;;;;;-145.69;100.00;52396.84;5053677;28;20276;-82
2022/10/19 09:11:08;;;;;;;15.98;4.35;;;;;;;-145.69;100.00;52386.97;5053672;28;20200;-81
2022/10/19 09:13:41;;;;;;;6.80;3.33;;;;;;;-145.69;100.00;52386.97;5053650;28;20561;-82
2022/10/19 09:16:13;;;;;;;9.13;4.00;;;;;;;-145.69;100.00;52426.56;5054034;28;20329;-82
2022/10/19 09:18:43;;;;;;;4.55;3.42;;;;;;;-145.69;100.00;52444.38;5052894;28;20227;-82
2022/10/19 09:21:15;;;;;;;7.18;3.80;;;;;;;-145.69;100.00;52422.59;5053018;28;20210;-81
2022/10/19 09:23:47;;;;;;;5.28;3.42;;;;;;;-145.69;100.00;52432.50;5053087;28;20204;-81
2022/10/19 09:26:16;;;;;;;4.93;3.80;;;;;;;-145.69;100.00;52404.78;5052965;28;20234;-81
2022/10/19 09:28:52;;;;;;;9.02;2.90;;;;;;;-145.69;100.00;52402.78;5052636;28;20585;-81
2022/10/19 09:31:27;;;;;;;4.38;3.33;;;;;;;-145.69;100.00;52375.06;5053186;28;20246;-81
2022/10/19 09:34:00;;;;;;;5.05;3.50;;;;;;;-145.69;100.00;52428.53;5053216;28;20569;-82
2022/10/19 09:36:34;;;;;;;7.07;2.88;;;;;;;-145.69;100.00;52404.78;5053266;28;20294;-86
2022/10/19 09:39:01;;;;;;;6.07;3.42;;;;;;;-145.69;100.00;52394.88;5053958;28;20203;-83
2022/10/19 09:41:28;;;;;;;4.10;2.80;;;;;;;-145.69;100.00;52410.72;5054081;28;20677;-87
2022/10/19 09:43:56;;;;;;;5.78;2.90;;;;;;;-145.69;100.00;52398.84;5054979;28;20539;-86
2022/10/19 09:46:50;;;;;;;4.35;3.10;;;;;;;-145.69;100.00;52392.91;5054593;28;20195;-86
2022/10/19 09:49:19;;;;;;;5.43;2.97;;;;;;;-145.69;100.00;52396.84;5055091;28;20257;-89
2022/10/19 09:51:50;;;;;;;4.28;2.45;;;;;;;-145.69;100.00;52432.50;5053696;28;20286;-87
2022/10/19 09:54:37;;;;;;;3.83;2.22;;;;;;;-145.69;100.00;52390.91;5052961;28;20234;-86
2022/10/19 09:57:05;;;;;;;5.00;2.40;;;;;;;-145.69;100.00;52394.88;5056614;28;20203;-84
2022/10/19 09:59:35;;;;;;;4.55;2.70;;;;;;;-145.69;100.00;52416.66;5054077;28;20685;-83
2022/10/19 10:02:15;;;;;;;5.28;2.50;;;;;;;-145.69;100.00;52412.69;5054538;28;20203;-84
2022/10/19 10:04:46;;;;;;;6.33;2.90;;;;;;;-145.69;100.00;52406.75;5053010;28;20432;-84
2022/10/19 10:07:17;;;;;;;3.72;2.40;;;;;;;-145.69;100.00;52400.81;5051115;28;20230;-84
2022/10/19 10:09:44;;;;;;;3.38;2.40;;;;;;;-145.69;100.00;52420.63;5033247;28;20199;-81
2022/10/19 10:12:15;;;;;;;4.22;2.22;;;;;;;-145.69;100.00;52375.06;5033679;28;20286;-81
2022/10/19 10:14:44;;;;;;;6.25;2.47;;;;;;;-145.69;100.00;52432.50;5032959;28;20207;-82
2022/10/19 10:17:16;;;;;;;4.65;2.63;;;;;;;-145.69;100.00;52392.91;5035111;28;20230;-83
2022/10/19 10:20:03;;;;;;;3.55;2.97;;;;;;;-145.69;100.00;52434.47;5035078;28;20228;-84
2022/10/19 10:22:35;;;;;;;4.32;2.38;;;;;;;-145.69;100.00;52384.97;5038216;28;20207;-82
2022/10/19 10:25:11;;;;;;;5.15;2.50;;;;;;;-145.69;100.00;52412.69;5041220;28;20559;-85
2022/10/19 10:27:40;;;;;;;7.18;3.00;;;;;;;-145.69;100.00;52410.72;5040027;28;20736;-83
2022/10/19 10:30:18;;;;;;;7.45;2.58;;;;;;;-145.69;100.00;52408.75;5041490;28;20232;-82
2022/10/19 10:32:49;;;;;;;4.85;2.67;;;;;;;-145.69;100.00;52410.72;5039077;28;20713;-83
2022/10/19 10:35:33;;;;;;;5.38;2.60;;;;;;;-145.69;100.00;52434.47;5038737;28;20215;-84
2022/10/19 10:38:13;;;;;;;8.73;2.63;;;;;;;-145.69;100.00;52384.97;5036342;28;20200;-84
2022/10/19 10:40:40;;;;;;;7.15;2.90;;;;;;;-145.69;100.00;52377.06;5036182;28;20204;-82
2022/10/19 10:43:09;;;;;;;4.72;2.67;;;;;;;-145.69;100.00;52418.63;5036028;28;20682;-82
2022/10/19 10:45:42;;;;;;;5.15;2.05;;;;;;;-145.69;100.00;52367.16;5035830;28;20674;-82
2022/10/19 10:48:21;;;;;;;3.80;2.17;;;;;;;-145.69;100.00;52402.78;5036138;28;20227;-82
2022/10/19 10:50:50;;;;;;;6.35;2.60;;;;;;;-145.69;100.00;52369.13;5036043;28;20208;-82
2022/10/19 10:53:44;;;;;;;4.05;2.47;;;;;;;-145.69;100.00;52375.06;5036066;28;20211;-83
2022/10/19 10:56:32;;;;;;;5.70;2.83;;;;;;;-145.69;100.00;52414.69;4989148;28;20211;-83
2022/10/19 10:59:06;;;;;;;2.97;2.00;;;;;;;-145.69;100.00;52400.81;5036167;28;20208;-82
2022/10/19 11:01:39;;;;;;;5.55;2.28;;;;;;;-145.69;100.00;52408.75;5038452;28;20207;-83
2022/10/19 11:04:09;;;;;;;4.72;2.83;;;;;;;-145.69;100.00;52420.63;5036009;28;20200;-82
2022/10/19 11:06:43;;;;;;;5.90;2.17;;;;;;;-145.69;100.00;52398.84;5036034;28;20215;-82
2022/10/19 11:09:16;;;;;;;4.72;2.60;;;;;;;-145.69;100.00;52408.75;5035710;28;20693;-83
2022/10/19 11:11:46;;;;;;;5.53;2.55;;;;;;;-145.69;100.00;52388.94;5035775;28;20211;-83
2022/10/19 11:14:26;;;;;;;5.28;2.50;;;;;;;-145.69;100.00;52408.75;5035472;28;20592;-82